sensor_id;sensor_type;location;lat;lon;timestamp;P1;durP1;ratioP1;P2;durP2;ratioP2
30307;SDS011;17114;52.314;8.910;2023-01-29T00:02:07;43.05;;;21.40;;
30307;SDS011;17114;52.314;8.910;2023-01-29T00:04:34;41.53;;;21.08;;
30307;SDS011;17114;52.314;8.910;2023-01-29T00:07:01;41.50;;;20.65;;
30307;SDS011;17114;52.314;8.910;2023-01-29T00:09:28;41.97;;;20.60;;
30307;SDS011;17114;52.314;8.910;2023-01-29T00:11:56;44.50;;;21.52;;
30307;SDS011;17114;52.314;8.910;2023-01-29T00:14:23;43.45;;;21.60;;
30307;SDS011;17114;52.314;8.910;2023-01-29T00:16:51;44.38;;;21.27;;
30307;SDS011;17114;52.314;8.910;2023-01-29T00:19:18;43.42;;;20.98;;
30307;SDS011;17114;52.314;8.910;2023-01-29T00:21:45;44.08;;;22.05;;
30307;SDS011;17114;52.314;8.910;2023-01-29T00:24:12;42.78;;;22.05;;
30307;SDS011;17114;52.314;8.910;2023-01-29T00:26:39;42.05;;;21.33;;
30307;SDS011;17114;52.314;8.910;2023-01-29T00:29:07;46.13;;;21.48;;
30307;SDS011;17114;52.314;8.910;2023-01-29T00:31:34;46.08;;;21.27;;
30307;SDS011;17114;52.314;8.910;2023-01-29T00:34:01;45.38;;;21.80;;
30307;SDS011;17114;52.314;8.910;2023-01-29T00:36:28;46.35;;;21.52;;
30307;SDS011;17114;52.314;8.910;2023-01-29T00:38:56;45.47;;;21.88;;
30307;SDS011;17114;52.314;8.910;2023-01-29T00:41:28;44.50;;;21.77;;
30307;SDS011;17114;52.314;8.910;2023-01-29T00:44:15;42.38;;;20.98;;
30307;SDS011;17114;52.314;8.910;2023-01-29T00:47:01;43.90;;;22.50;;
30307;SDS011;17114;52.314;8.910;2023-01-29T00:49:29;43.17;;;21.27;;
30307;SDS011;17114;52.314;8.910;2023-01-29T00:51:56;43.47;;;21.10;;
30307;SDS011;17114;52.314;8.910;2023-01-29T00:54:41;43.92;;;21.83;;
30307;SDS011;17114;52.314;8.910;2023-01-29T00:57:08;44.05;;;21.50;;
30307;SDS011;17114;52.314;8.910;2023-01-29T00:59:35;44.15;;;22.38;;
30307;SDS011;17114;52.314;8.910;2023-01-29T01:02:01;47.60;;;22.27;;
30307;SDS011;17114;52.314;8.910;2023-01-29T01:04:47;48.97;;;22.00;;
30307;SDS011;17114;52.314;8.910;2023-01-29T01:07:14;44.90;;;21.73;;
30307;SDS011;17114;52.314;8.910;2023-01-29T01:09:41;44.50;;;21.85;;
30307;SDS011;17114;52.314;8.910;2023-01-29T01:12:26;43.75;;;21.20;;
30307;SDS011;17114;52.314;8.910;2023-01-29T01:14:53;44.45;;;20.98;;
30307;SDS011;17114;52.314;8.910;2023-01-29T01:17:20;43.33;;;21.08;;
30307;SDS011;17114;52.314;8.910;2023-01-29T01:19:47;43.38;;;22.00;;
30307;SDS011;17114;52.314;8.910;2023-01-29T01:22:14;43.83;;;20.73;;
30307;SDS011;17114;52.314;8.910;2023-01-29T01:24:41;40.75;;;19.75;;
30307;SDS011;17114;52.314;8.910;2023-01-29T01:27:08;41.92;;;20.40;;
30307;SDS011;17114;52.314;8.910;2023-01-29T01:29:35;42.33;;;20.23;;
30307;SDS011;17114;52.314;8.910;2023-01-29T01:32:02;41.78;;;20.45;;
30307;SDS011;17114;52.314;8.910;2023-01-29T01:34:29;43.35;;;21.13;;
30307;SDS011;17114;52.314;8.910;2023-01-29T01:36:56;43.35;;;20.75;;
30307;SDS011;17114;52.314;8.910;2023-01-29T01:39:23;40.80;;;20.17;;
30307;SDS011;17114;52.314;8.910;2023-01-29T01:41:51;45.22;;;21.15;;
30307;SDS011;17114;52.314;8.910;2023-01-29T01:47:22;43.00;;;20.23;;
30307;SDS011;17114;52.314;8.910;2023-01-29T01:49:57;42.47;;;19.77;;
30307;SDS011;17114;52.314;8.910;2023-01-29T01:52:28;47.47;;;21.08;;
30307;SDS011;17114;52.314;8.910;2023-01-29T01:54:57;38.17;;;19.30;;
30307;SDS011;17114;52.314;8.910;2023-01-29T01:57:25;43.22;;;20.35;;
30307;SDS011;17114;52.314;8.910;2023-01-29T01:59:55;40.20;;;19.95;;
30307;SDS011;17114;52.314;8.910;2023-01-29T02:02:25;41.38;;;20.35;;
30307;SDS011;17114;52.314;8.910;2023-01-29T02:05:11;43.28;;;20.33;;
30307;SDS011;17114;52.314;8.910;2023-01-29T02:07:58;42.13;;;21.17;;
30307;SDS011;17114;52.314;8.910;2023-01-29T02:10:44;42.83;;;19.38;;
30307;SDS011;17114;52.314;8.910;2023-01-29T02:13:13;42.30;;;19.33;;
30307;SDS011;17114;52.314;8.910;2023-01-29T02:15:44;40.95;;;19.50;;
30307;SDS011;17114;52.314;8.910;2023-01-29T02:18:14;43.70;;;19.85;;
30307;SDS011;17114;52.314;8.910;2023-01-29T02:20:43;41.78;;;20.27;;
30307;SDS011;17114;52.314;8.910;2023-01-29T02:29:17;47.08;;;20.88;;
30307;SDS011;17114;52.314;8.910;2023-01-29T02:38:05;42.95;;;20.00;;
30307;SDS011;17114;52.314;8.910;2023-01-29T02:41:07;45.47;;;20.48;;
30307;SDS011;17114;52.314;8.910;2023-01-29T02:43:52;43.17;;;21.15;;
30307;SDS011;17114;52.314;8.910;2023-01-29T02:46:34;45.58;;;20.95;;
30307;SDS011;17114;52.314;8.910;2023-01-29T02:49:23;41.70;;;20.70;;
30307;SDS011;17114;52.314;8.910;2023-01-29T02:52:18;40.75;;;20.38;;
30307;SDS011;17114;52.314;8.910;2023-01-29T02:54:52;43.60;;;20.58;;
30307;SDS011;17114;52.314;8.910;2023-01-29T02:57:29;45.78;;;20.88;;
30307;SDS011;17114;52.314;8.910;2023-01-29T03:00:03;43.65;;;21.15;;
30307;SDS011;17114;52.314;8.910;2023-01-29T03:05:15;45.30;;;21.75;;
30307;SDS011;17114;52.314;8.910;2023-01-29T03:07:58;44.00;;;21.58;;
30307;SDS011;17114;52.314;8.910;2023-01-29T03:10:39;44.63;;;20.75;;
30307;SDS011;17114;52.314;8.910;2023-01-29T03:13:24;45.88;;;20.73;;
30307;SDS011;17114;52.314;8.910;2023-01-29T03:16:01;45.20;;;21.25;;
30307;SDS011;17114;52.314;8.910;2023-01-29T03:18:52;41.63;;;21.15;;
30307;SDS011;17114;52.314;8.910;2023-01-29T03:21:33;43.70;;;21.20;;
30307;SDS011;17114;52.314;8.910;2023-01-29T03:24:24;44.20;;;21.00;;
30307;SDS011;17114;52.314;8.910;2023-01-29T03:27:23;45.17;;;19.65;;
30307;SDS011;17114;52.314;8.910;2023-01-29T03:30:15;44.88;;;21.05;;
30307;SDS011;17114;52.314;8.910;2023-01-29T03:33:03;45.25;;;20.77;;
30307;SDS011;17114;52.314;8.910;2023-01-29T03:35:33;48.22;;;21.95;;
30307;SDS011;17114;52.314;8.910;2023-01-29T03:38:23;46.97;;;21.42;;
30307;SDS011;17114;52.314;8.910;2023-01-29T03:40:55;47.10;;;22.27;;
30307;SDS011;17114;52.314;8.910;2023-01-29T03:46:29;44.58;;;21.52;;
30307;SDS011;17114;52.314;8.910;2023-01-29T03:52:01;49.53;;;22.83;;
30307;SDS011;17114;52.314;8.910;2023-01-29T03:57:17;48.08;;;22.05;;
30307;SDS011;17114;52.314;8.910;2023-01-29T04:00:07;53.03;;;22.88;;
30307;SDS011;17114;52.314;8.910;2023-01-29T04:05:43;56.55;;;24.48;;
30307;SDS011;17114;52.314;8.910;2023-01-29T04:08:17;55.55;;;24.33;;
30307;SDS011;17114;52.314;8.910;2023-01-29T04:10:51;57.20;;;24.80;;
30307;SDS011;17114;52.314;8.910;2023-01-29T04:13:19;55.63;;;25.02;;
30307;SDS011;17114;52.314;8.910;2023-01-29T04:15:49;59.33;;;25.60;;
30307;SDS011;17114;52.314;8.910;2023-01-29T04:18:22;59.53;;;25.98;;
30307;SDS011;17114;52.314;8.910;2023-01-29T04:20:51;58.28;;;25.35;;
30307;SDS011;17114;52.314;8.910;2023-01-29T04:23:20;59.65;;;25.77;;
30307;SDS011;17114;52.314;8.910;2023-01-29T04:28:29;62.35;;;26.90;;
30307;SDS011;17114;52.314;8.910;2023-01-29T04:31:08;62.53;;;26.58;;
30307;SDS011;17114;52.314;8.910;2023-01-29T04:33:45;62.70;;;26.58;;
30307;SDS011;17114;52.314;8.910;2023-01-29T04:44:41;66.47;;;28.67;;
30307;SDS011;17114;52.314;8.910;2023-01-29T04:52:33;62.03;;;27.38;;
30307;SDS011;17114;52.314;8.910;2023-01-29T04:55:19;67.18;;;29.40;;
30307;SDS011;17114;52.314;8.910;2023-01-29T04:58:15;64.38;;;28.02;;
30307;SDS011;17114;52.314;8.910;2023-01-29T05:03:12;64.15;;;28.13;;
30307;SDS011;17114;52.314;8.910;2023-01-29T05:05:42;71.70;;;30.08;;
30307;SDS011;17114;52.314;8.910;2023-01-29T05:08:12;67.10;;;29.58;;
30307;SDS011;17114;52.314;8.910;2023-01-29T05:10:41;66.55;;;28.52;;
30307;SDS011;17114;52.314;8.910;2023-01-29T05:13:09;69.57;;;28.92;;
30307;SDS011;17114;52.314;8.910;2023-01-29T05:15:39;69.45;;;30.27;;
30307;SDS011;17114;52.314;8.910;2023-01-29T05:18:10;73.65;;;31.65;;
30307;SDS011;17114;52.314;8.910;2023-01-29T05:20:38;70.13;;;29.38;;
30307;SDS011;17114;52.314;8.910;2023-01-29T05:23:18;70.38;;;30.25;;
30307;SDS011;17114;52.314;8.910;2023-01-29T05:25:47;70.43;;;30.27;;
30307;SDS011;17114;52.314;8.910;2023-01-29T05:28:15;71.57;;;31.20;;
30307;SDS011;17114;52.314;8.910;2023-01-29T05:30:44;66.03;;;29.05;;
30307;SDS011;17114;52.314;8.910;2023-01-29T05:33:19;65.60;;;30.30;;
30307;SDS011;17114;52.314;8.910;2023-01-29T05:35:54;66.97;;;29.42;;
30307;SDS011;17114;52.314;8.910;2023-01-29T05:38:23;66.22;;;28.75;;
30307;SDS011;17114;52.314;8.910;2023-01-29T05:40:50;66.07;;;29.95;;
30307;SDS011;17114;52.314;8.910;2023-01-29T05:43:21;66.10;;;28.90;;
30307;SDS011;17114;52.314;8.910;2023-01-29T05:45:56;67.90;;;29.83;;
30307;SDS011;17114;52.314;8.910;2023-01-29T05:48:25;66.63;;;29.02;;
30307;SDS011;17114;52.314;8.910;2023-01-29T05:50:58;67.20;;;28.85;;
30307;SDS011;17114;52.314;8.910;2023-01-29T05:55:59;65.68;;;29.42;;
30307;SDS011;17114;52.314;8.910;2023-01-29T05:58:26;69.95;;;28.73;;
30307;SDS011;17114;52.314;8.910;2023-01-29T06:00:55;71.82;;;29.55;;
30307;SDS011;17114;52.314;8.910;2023-01-29T06:03:22;70.38;;;30.33;;
30307;SDS011;17114;52.314;8.910;2023-01-29T06:05:48;74.13;;;30.58;;
30307;SDS011;17114;52.314;8.910;2023-01-29T06:08:15;70.43;;;30.02;;
30307;SDS011;17114;52.314;8.910;2023-01-29T06:10:42;70.53;;;30.05;;
30307;SDS011;17114;52.314;8.910;2023-01-29T06:13:09;68.10;;;29.05;;
30307;SDS011;17114;52.314;8.910;2023-01-29T06:15:37;69.22;;;28.80;;
30307;SDS011;17114;52.314;8.910;2023-01-29T06:18:05;71.97;;;30.92;;
30307;SDS011;17114;52.314;8.910;2023-01-29T06:20:31;70.18;;;30.25;;
30307;SDS011;17114;52.314;8.910;2023-01-29T06:22:58;70.05;;;30.42;;
30307;SDS011;17114;52.314;8.910;2023-01-29T06:25:25;72.85;;;31.77;;
30307;SDS011;17114;52.314;8.910;2023-01-29T06:27:52;69.57;;;30.42;;
30307;SDS011;17114;52.314;8.910;2023-01-29T06:30:19;71.53;;;30.70;;
30307;SDS011;17114;52.314;8.910;2023-01-29T06:32:45;71.38;;;29.70;;
30307;SDS011;17114;52.314;8.910;2023-01-29T06:35:12;73.38;;;31.48;;
30307;SDS011;17114;52.314;8.910;2023-01-29T06:37:39;75.18;;;32.50;;
30307;SDS011;17114;52.314;8.910;2023-01-29T06:40:06;70.68;;;31.10;;
30307;SDS011;17114;52.314;8.910;2023-01-29T06:42:34;75.90;;;31.83;;
30307;SDS011;17114;52.314;8.910;2023-01-29T06:45:01;73.10;;;30.88;;
30307;SDS011;17114;52.314;8.910;2023-01-29T06:47:28;71.03;;;31.33;;
30307;SDS011;17114;52.314;8.910;2023-01-29T06:49:54;75.32;;;31.33;;
30307;SDS011;17114;52.314;8.910;2023-01-29T06:52:21;75.20;;;32.50;;
30307;SDS011;17114;52.314;8.910;2023-01-29T06:54:48;78.53;;;31.77;;
30307;SDS011;17114;52.314;8.910;2023-01-29T06:57:15;81.93;;;32.70;;
30307;SDS011;17114;52.314;8.910;2023-01-29T06:59:41;77.10;;;32.58;;
30307;SDS011;17114;52.314;8.910;2023-01-29T07:02:08;73.75;;;32.35;;
30307;SDS011;17114;52.314;8.910;2023-01-29T07:04:35;81.38;;;32.88;;
30307;SDS011;17114;52.314;8.910;2023-01-29T07:07:03;79.57;;;34.22;;
30307;SDS011;17114;52.314;8.910;2023-01-29T07:09:30;79.03;;;32.90;;
30307;SDS011;17114;52.314;8.910;2023-01-29T07:11:57;79.28;;;33.10;;
30307;SDS011;17114;52.314;8.910;2023-01-29T07:14:23;84.10;;;34.30;;
30307;SDS011;17114;52.314;8.910;2023-01-29T07:16:50;84.57;;;35.75;;
30307;SDS011;17114;52.314;8.910;2023-01-29T07:19:17;84.72;;;34.03;;
30307;SDS011;17114;52.314;8.910;2023-01-29T07:21:44;79.85;;;32.92;;
30307;SDS011;17114;52.314;8.910;2023-01-29T07:24:11;80.75;;;33.70;;
30307;SDS011;17114;52.314;8.910;2023-01-29T07:26:38;89.50;;;36.05;;
30307;SDS011;17114;52.314;8.910;2023-01-29T07:29:05;84.38;;;34.92;;
30307;SDS011;17114;52.314;8.910;2023-01-29T07:31:31;90.70;;;37.35;;
30307;SDS011;17114;52.314;8.910;2023-01-29T07:33:59;83.35;;;35.08;;
30307;SDS011;17114;52.314;8.910;2023-01-29T07:36:26;88.25;;;37.05;;
30307;SDS011;17114;52.314;8.910;2023-01-29T07:38:53;91.20;;;36.55;;
30307;SDS011;17114;52.314;8.910;2023-01-29T07:41:20;86.20;;;36.25;;
30307;SDS011;17114;52.314;8.910;2023-01-29T07:43:47;86.88;;;34.38;;
30307;SDS011;17114;52.314;8.910;2023-01-29T07:46:14;90.80;;;34.92;;
30307;SDS011;17114;52.314;8.910;2023-01-29T07:48:41;93.60;;;37.20;;
30307;SDS011;17114;52.314;8.910;2023-01-29T07:51:08;94.32;;;38.70;;
30307;SDS011;17114;52.314;8.910;2023-01-29T07:53:34;87.40;;;37.88;;
30307;SDS011;17114;52.314;8.910;2023-01-29T07:56:02;85.18;;;36.20;;
30307;SDS011;17114;52.314;8.910;2023-01-29T07:58:29;85.38;;;35.80;;
30307;SDS011;17114;52.314;8.910;2023-01-29T08:00:56;86.20;;;34.22;;
30307;SDS011;17114;52.314;8.910;2023-01-29T08:03:23;83.97;;;34.47;;
30307;SDS011;17114;52.314;8.910;2023-01-29T08:05:49;84.85;;;34.20;;
30307;SDS011;17114;52.314;8.910;2023-01-29T08:08:16;80.47;;;33.20;;
30307;SDS011;17114;52.314;8.910;2023-01-29T08:10:44;93.10;;;36.20;;
30307;SDS011;17114;52.314;8.910;2023-01-29T08:13:11;85.20;;;34.25;;
30307;SDS011;17114;52.314;8.910;2023-01-29T08:15:38;82.13;;;34.13;;
30307;SDS011;17114;52.314;8.910;2023-01-29T08:18:09;88.85;;;35.55;;
30307;SDS011;17114;52.314;8.910;2023-01-29T08:20:36;85.00;;;35.85;;
30307;SDS011;17114;52.314;8.910;2023-01-29T08:23:12;88.65;;;36.25;;
30307;SDS011;17114;52.314;8.910;2023-01-29T08:25:41;88.47;;;35.78;;
30307;SDS011;17114;52.314;8.910;2023-01-29T08:28:08;91.82;;;37.80;;
30307;SDS011;17114;52.314;8.910;2023-01-29T08:30:37;89.63;;;36.30;;
30307;SDS011;17114;52.314;8.910;2023-01-29T08:33:04;83.13;;;36.80;;
30307;SDS011;17114;52.314;8.910;2023-01-29T08:35:31;87.70;;;37.58;;
30307;SDS011;17114;52.314;8.910;2023-01-29T08:37:58;89.95;;;37.15;;
30307;SDS011;17114;52.314;8.910;2023-01-29T08:40:29;83.30;;;33.72;;
30307;SDS011;17114;52.314;8.910;2023-01-29T08:42:58;85.32;;;34.83;;
30307;SDS011;17114;52.314;8.910;2023-01-29T08:45:28;85.03;;;35.70;;
30307;SDS011;17114;52.314;8.910;2023-01-29T08:47:55;85.43;;;35.08;;
30307;SDS011;17114;52.314;8.910;2023-01-29T08:50:22;88.15;;;34.60;;
30307;SDS011;17114;52.314;8.910;2023-01-29T08:52:50;86.80;;;34.95;;
30307;SDS011;17114;52.314;8.910;2023-01-29T08:55:17;85.28;;;35.05;;
30307;SDS011;17114;52.314;8.910;2023-01-29T08:57:44;87.78;;;36.85;;
30307;SDS011;17114;52.314;8.910;2023-01-29T09:00:11;81.72;;;34.50;;
30307;SDS011;17114;52.314;8.910;2023-01-29T09:02:38;82.80;;;33.92;;
30307;SDS011;17114;52.314;8.910;2023-01-29T09:05:06;82.85;;;34.35;;
30307;SDS011;17114;52.314;8.910;2023-01-29T09:07:33;82.07;;;35.75;;
30307;SDS011;17114;52.314;8.910;2023-01-29T09:10:00;86.82;;;34.22;;
30307;SDS011;17114;52.314;8.910;2023-01-29T09:12:27;75.07;;;31.60;;
30307;SDS011;17114;52.314;8.910;2023-01-29T09:14:55;88.28;;;34.70;;
30307;SDS011;17114;52.314;8.910;2023-01-29T09:17:22;84.25;;;33.30;;
30307;SDS011;17114;52.314;8.910;2023-01-29T09:19:49;79.30;;;34.20;;
30307;SDS011;17114;52.314;8.910;2023-01-29T09:22:18;78.60;;;32.05;;
30307;SDS011;17114;52.314;8.910;2023-01-29T09:24:45;77.70;;;32.67;;
30307;SDS011;17114;52.314;8.910;2023-01-29T09:27:12;81.60;;;33.75;;
30307;SDS011;17114;52.314;8.910;2023-01-29T09:29:39;81.68;;;34.67;;
30307;SDS011;17114;52.314;8.910;2023-01-29T09:32:06;79.50;;;34.20;;
30307;SDS011;17114;52.314;8.910;2023-01-29T09:34:33;81.45;;;33.03;;
30307;SDS011;17114;52.314;8.910;2023-01-29T09:37:00;81.18;;;34.33;;
30307;SDS011;17114;52.314;8.910;2023-01-29T09:39:27;82.53;;;33.65;;
30307;SDS011;17114;52.314;8.910;2023-01-29T09:41:55;80.00;;;33.55;;
30307;SDS011;17114;52.314;8.910;2023-01-29T09:49:57;77.45;;;31.73;;
30307;SDS011;17114;52.314;8.910;2023-01-29T09:52:32;80.22;;;34.58;;
30307;SDS011;17114;52.314;8.910;2023-01-29T09:57:55;85.50;;;34.05;;
30307;SDS011;17114;52.314;8.910;2023-01-29T10:00:31;83.80;;;33.33;;
30307;SDS011;17114;52.314;8.910;2023-01-29T10:11:11;83.53;;;34.45;;
30307;SDS011;17114;52.314;8.910;2023-01-29T10:14:00;77.25;;;32.45;;
30307;SDS011;17114;52.314;8.910;2023-01-29T10:17:02;79.38;;;33.38;;
30307;SDS011;17114;52.314;8.910;2023-01-29T10:19:55;76.30;;;32.28;;
30307;SDS011;17114;52.314;8.910;2023-01-29T10:22:44;78.43;;;33.67;;
30307;SDS011;17114;52.314;8.910;2023-01-29T10:25:25;76.40;;;33.33;;
30307;SDS011;17114;52.314;8.910;2023-01-29T10:27:53;79.18;;;32.92;;
30307;SDS011;17114;52.314;8.910;2023-01-29T10:30:45;77.75;;;32.90;;
30307;SDS011;17114;52.314;8.910;2023-01-29T10:33:34;77.70;;;33.05;;
30307;SDS011;17114;52.314;8.910;2023-01-29T10:36:31;80.07;;;32.83;;
30307;SDS011;17114;52.314;8.910;2023-01-29T10:39:03;80.22;;;32.90;;
30307;SDS011;17114;52.314;8.910;2023-01-29T10:41:37;79.50;;;33.47;;
30307;SDS011;17114;52.314;8.910;2023-01-29T10:44:54;73.75;;;32.13;;
30307;SDS011;17114;52.314;8.910;2023-01-29T10:49:36;75.32;;;32.25;;
30307;SDS011;17114;52.314;8.910;2023-01-29T11:00:11;80.07;;;33.97;;
30307;SDS011;17114;52.314;8.910;2023-01-29T11:02:48;73.25;;;32.63;;
30307;SDS011;17114;52.314;8.910;2023-01-29T11:06:00;75.30;;;33.00;;
30307;SDS011;17114;52.314;8.910;2023-01-29T11:08:15;78.22;;;34.55;;
30307;SDS011;17114;52.314;8.910;2023-01-29T11:10:50;76.45;;;33.63;;
30307;SDS011;17114;52.314;8.910;2023-01-29T11:16:14;76.50;;;32.75;;
30307;SDS011;17114;52.314;8.910;2023-01-29T11:21:25;78.93;;;33.85;;
30307;SDS011;17114;52.314;8.910;2023-01-29T11:26:43;77.18;;;32.65;;
30307;SDS011;17114;52.314;8.910;2023-01-29T11:32:27;73.90;;;32.05;;
30307;SDS011;17114;52.314;8.910;2023-01-29T11:35:16;76.82;;;32.58;;
30307;SDS011;17114;52.314;8.910;2023-01-29T11:37:46;79.95;;;34.25;;
30307;SDS011;17114;52.314;8.910;2023-01-29T11:43:10;79.63;;;33.50;;
30307;SDS011;17114;52.314;8.910;2023-01-29T11:45:50;72.80;;;32.60;;
30307;SDS011;17114;52.314;8.910;2023-01-29T11:48:20;77.25;;;33.55;;
30307;SDS011;17114;52.314;8.910;2023-01-29T11:50:52;80.03;;;34.67;;
30307;SDS011;17114;52.314;8.910;2023-01-29T11:53:22;78.88;;;33.80;;
30307;SDS011;17114;52.314;8.910;2023-01-29T11:55:58;75.53;;;33.95;;
30307;SDS011;17114;52.314;8.910;2023-01-29T11:58:28;73.93;;;32.58;;
30307;SDS011;17114;52.314;8.910;2023-01-29T12:00:58;76.60;;;34.35;;
30307;SDS011;17114;52.314;8.910;2023-01-29T12:03:33;74.75;;;32.55;;
30307;SDS011;17114;52.314;8.910;2023-01-29T12:08:52;73.20;;;33.10;;
30307;SDS011;17114;52.314;8.910;2023-01-29T12:11:26;75.97;;;32.58;;
30307;SDS011;17114;52.314;8.910;2023-01-29T12:13:53;70.15;;;30.83;;
30307;SDS011;17114;52.314;8.910;2023-01-29T12:16:24;70.10;;;30.05;;
30307;SDS011;17114;52.314;8.910;2023-01-29T12:18:54;74.18;;;31.10;;
30307;SDS011;17114;52.314;8.910;2023-01-29T12:24:30;69.30;;;29.33;;
30307;SDS011;17114;52.314;8.910;2023-01-29T12:33:04;66.13;;;30.35;;
30307;SDS011;17114;52.314;8.910;2023-01-29T12:35:46;66.57;;;29.08;;
30307;SDS011;17114;52.314;8.910;2023-01-29T12:38:29;64.72;;;28.25;;
30307;SDS011;17114;52.314;8.910;2023-01-29T12:41:02;65.97;;;29.08;;
30307;SDS011;17114;52.314;8.910;2023-01-29T12:43:38;69.00;;;30.90;;
30307;SDS011;17114;52.314;8.910;2023-01-29T12:46:21;65.82;;;28.38;;
30307;SDS011;17114;52.314;8.910;2023-01-29T12:48:54;64.65;;;28.60;;
30307;SDS011;17114;52.314;8.910;2023-01-29T12:51:26;71.57;;;29.83;;
30307;SDS011;17114;52.314;8.910;2023-01-29T12:54:03;68.38;;;29.58;;
30307;SDS011;17114;52.314;8.910;2023-01-29T13:01:58;66.50;;;28.95;;
30307;SDS011;17114;52.314;8.910;2023-01-29T13:04:39;59.63;;;27.70;;
30307;SDS011;17114;52.314;8.910;2023-01-29T13:07:34;65.95;;;28.27;;
30307;SDS011;17114;52.314;8.910;2023-01-29T13:10:08;61.03;;;28.17;;
30307;SDS011;17114;52.314;8.910;2023-01-29T13:12:39;59.15;;;26.88;;
30307;SDS011;17114;52.314;8.910;2023-01-29T13:15:27;59.25;;;25.60;;
30307;SDS011;17114;52.314;8.910;2023-01-29T13:20:37;59.38;;;26.20;;
30307;SDS011;17114;52.314;8.910;2023-01-29T13:23:21;62.35;;;27.77;;
30307;SDS011;17114;52.314;8.910;2023-01-29T13:25:53;53.47;;;24.55;;
30307;SDS011;17114;52.314;8.910;2023-01-29T13:28:22;69.28;;;28.60;;
30307;SDS011;17114;52.314;8.910;2023-01-29T13:33:54;65.77;;;26.57;;
30307;SDS011;17114;52.314;8.910;2023-01-29T13:36:27;58.80;;;27.48;;
30307;SDS011;17114;52.314;8.910;2023-01-29T13:39:06;61.22;;;26.33;;
30307;SDS011;17114;52.314;8.910;2023-01-29T13:41:41;58.97;;;26.75;;
30307;SDS011;17114;52.314;8.910;2023-01-29T13:47:24;63.65;;;27.88;;
30307;SDS011;17114;52.314;8.910;2023-01-29T13:49:55;57.70;;;26.90;;
30307;SDS011;17114;52.314;8.910;2023-01-29T13:52:31;60.53;;;26.67;;
30307;SDS011;17114;52.314;8.910;2023-01-29T14:10:26;59.95;;;27.17;;
30307;SDS011;17114;52.314;8.910;2023-01-29T14:18:25;59.88;;;27.30;;
30307;SDS011;17114;52.314;8.910;2023-01-29T14:23:38;57.45;;;27.10;;
30307;SDS011;17114;52.314;8.910;2023-01-29T14:31:31;54.42;;;24.73;;
30307;SDS011;17114;52.314;8.910;2023-01-29T14:34:12;58.78;;;25.38;;
30307;SDS011;17114;52.314;8.910;2023-01-29T14:36:45;57.53;;;27.15;;
30307;SDS011;17114;52.314;8.910;2023-01-29T14:39:23;60.58;;;26.13;;
30307;SDS011;17114;52.314;8.910;2023-01-29T14:42:03;61.28;;;26.25;;
30307;SDS011;17114;52.314;8.910;2023-01-29T14:55:36;61.95;;;27.40;;
30307;SDS011;17114;52.314;8.910;2023-01-29T14:58:44;55.33;;;25.25;;
30307;SDS011;17114;52.314;8.910;2023-01-29T15:01:34;58.63;;;24.98;;
30307;SDS011;17114;52.314;8.910;2023-01-29T15:04:03;60.75;;;27.33;;
30307;SDS011;17114;52.314;8.910;2023-01-29T15:09:16;65.30;;;28.52;;
30307;SDS011;17114;52.314;8.910;2023-01-29T15:14:51;58.00;;;25.80;;
30307;SDS011;17114;52.314;8.910;2023-01-29T15:17:33;63.08;;;27.98;;
30307;SDS011;17114;52.314;8.910;2023-01-29T15:22:53;60.13;;;27.35;;
30307;SDS011;17114;52.314;8.910;2023-01-29T15:25:20;62.92;;;27.10;;
30307;SDS011;17114;52.314;8.910;2023-01-29T15:27:48;64.65;;;27.38;;
30307;SDS011;17114;52.314;8.910;2023-01-29T15:30:16;61.50;;;27.13;;
30307;SDS011;17114;52.314;8.910;2023-01-29T15:32:45;64.15;;;27.50;;
30307;SDS011;17114;52.314;8.910;2023-01-29T15:40:52;61.65;;;27.65;;
30307;SDS011;17114;52.314;8.910;2023-01-29T15:43:33;63.88;;;28.45;;
30307;SDS011;17114;52.314;8.910;2023-01-29T15:46:44;63.15;;;28.48;;
30307;SDS011;17114;52.314;8.910;2023-01-29T15:49:06;66.97;;;28.45;;
30307;SDS011;17114;52.314;8.910;2023-01-29T15:51:43;68.35;;;29.92;;
30307;SDS011;17114;52.314;8.910;2023-01-29T15:54:14;73.22;;;28.38;;
30307;SDS011;17114;52.314;8.910;2023-01-29T15:56:44;67.30;;;31.45;;
30307;SDS011;17114;52.314;8.910;2023-01-29T15:59:15;65.68;;;29.58;;
30307;SDS011;17114;52.314;8.910;2023-01-29T16:01:44;69.53;;;30.40;;
30307;SDS011;17114;52.314;8.910;2023-01-29T16:04:12;69.53;;;31.55;;
30307;SDS011;17114;52.314;8.910;2023-01-29T16:06:46;71.47;;;30.80;;
30307;SDS011;17114;52.314;8.910;2023-01-29T16:09:16;70.38;;;29.65;;
30307;SDS011;17114;52.314;8.910;2023-01-29T16:11:45;69.80;;;30.83;;
30307;SDS011;17114;52.314;8.910;2023-01-29T16:14:13;69.72;;;31.23;;
30307;SDS011;17114;52.314;8.910;2023-01-29T16:16:44;71.07;;;31.15;;
30307;SDS011;17114;52.314;8.910;2023-01-29T16:21:53;72.05;;;29.90;;
30307;SDS011;17114;52.314;8.910;2023-01-29T16:24:25;60.08;;;23.50;;
30307;SDS011;17114;52.314;8.910;2023-01-29T16:26:57;65.88;;;29.83;;
30307;SDS011;17114;52.314;8.910;2023-01-29T16:29:30;70.15;;;30.80;;
30307;SDS011;17114;52.314;8.910;2023-01-29T16:31:59;71.47;;;31.17;;
30307;SDS011;17114;52.314;8.910;2023-01-29T16:34:29;68.60;;;30.23;;
30307;SDS011;17114;52.314;8.910;2023-01-29T16:36:57;66.85;;;30.50;;
30307;SDS011;17114;52.314;8.910;2023-01-29T16:39:29;68.43;;;30.65;;
30307;SDS011;17114;52.314;8.910;2023-01-29T16:44:36;70.65;;;31.60;;
30307;SDS011;17114;52.314;8.910;2023-01-29T16:47:12;75.00;;;30.65;;
30307;SDS011;17114;52.314;8.910;2023-01-29T16:49:49;72.90;;;32.42;;
30307;SDS011;17114;52.314;8.910;2023-01-29T16:52:39;69.88;;;30.70;;
30307;SDS011;17114;52.314;8.910;2023-01-29T16:55:21;76.18;;;32.55;;
30307;SDS011;17114;52.314;8.910;2023-01-29T16:57:53;68.07;;;31.35;;
30307;SDS011;17114;52.314;8.910;2023-01-29T17:00:29;73.25;;;33.25;;
30307;SDS011;17114;52.314;8.910;2023-01-29T17:03:02;74.80;;;32.80;;
30307;SDS011;17114;52.314;8.910;2023-01-29T17:05:32;56.05;;;23.35;;
30307;SDS011;17114;52.314;8.910;2023-01-29T17:08:04;69.32;;;30.67;;
30307;SDS011;17114;52.314;8.910;2023-01-29T17:10:32;70.00;;;31.42;;
30307;SDS011;17114;52.314;8.910;2023-01-29T17:13:02;79.70;;;31.92;;
30307;SDS011;17114;52.314;8.910;2023-01-29T17:15:43;74.65;;;32.38;;
30307;SDS011;17114;52.314;8.910;2023-01-29T17:18:22;68.30;;;30.73;;
30307;SDS011;17114;52.314;8.910;2023-01-29T17:20:50;68.03;;;29.42;;
30307;SDS011;17114;52.314;8.910;2023-01-29T17:23:20;67.78;;;29.98;;
30307;SDS011;17114;52.314;8.910;2023-01-29T17:25:48;68.15;;;29.10;;
30307;SDS011;17114;52.314;8.910;2023-01-29T17:28:15;64.70;;;27.92;;
30307;SDS011;17114;52.314;8.910;2023-01-29T17:30:43;67.50;;;30.95;;
30307;SDS011;17114;52.314;8.910;2023-01-29T17:33:30;66.68;;;29.27;;
30307;SDS011;17114;52.314;8.910;2023-01-29T17:35:57;64.68;;;28.73;;
30307;SDS011;17114;52.314;8.910;2023-01-29T17:38:24;65.38;;;27.83;;
30307;SDS011;17114;52.314;8.910;2023-01-29T17:40:56;60.22;;;28.73;;
30307;SDS011;17114;52.314;8.910;2023-01-29T17:43:32;71.25;;;30.02;;
30307;SDS011;17114;52.314;8.910;2023-01-29T17:45:59;67.25;;;29.20;;
30307;SDS011;17114;52.314;8.910;2023-01-29T17:48:29;69.15;;;29.67;;
30307;SDS011;17114;52.314;8.910;2023-01-29T17:50:57;65.05;;;30.00;;